sensor_id;sensor_type;location;lat;lon;timestamp;P1;durP1;ratioP1;P2;durP2;ratioP2
62788;SDS011;66401;42.016;21.454;2023-04-15T00:00:29;2.23;;;1.57;;
62788;SDS011;66401;42.016;21.454;2023-04-15T00:02:54;2.57;;;1.97;;
62788;SDS011;66401;42.016;21.454;2023-04-15T00:05:20;1.87;;;1.33;;
62788;SDS011;66401;42.016;21.454;2023-04-15T00:07:46;2.87;;;2.10;;
62788;SDS011;66401;42.016;21.454;2023-04-15T00:10:12;2.33;;;1.80;;
62788;SDS011;66401;42.016;21.454;2023-04-15T00:12:38;4.23;;;1.60;;
62788;SDS011;66401;42.016;21.454;2023-04-15T00:15:05;2.47;;;1.80;;
62788;SDS011;66401;42.016;21.454;2023-04-15T00:17:32;3.43;;;1.93;;
62788;SDS011;66401;42.016;21.454;2023-04-15T00:19:58;3.43;;;2.13;;
62788;SDS011;66401;42.016;21.454;2023-04-15T00:22:24;3.23;;;1.77;;
62788;SDS011;66401;42.016;21.454;2023-04-15T00:24:51;3.93;;;2.23;;
62788;SDS011;66401;42.016;21.454;2023-04-15T00:27:17;3.07;;;1.97;;
62788;SDS011;66401;42.016;21.454;2023-04-15T00:29:42;1.90;;;1.50;;
62788;SDS011;66401;42.016;21.454;2023-04-15T00:32:08;3.70;;;1.90;;
62788;SDS011;66401;42.016;21.454;2023-04-15T00:34:33;3.97;;;2.13;;
62788;SDS011;66401;42.016;21.454;2023-04-15T00:36:59;5.03;;;2.13;;
62788;SDS011;66401;42.016;21.454;2023-04-15T00:39:24;4.03;;;2.90;;
62788;SDS011;66401;42.016;21.454;2023-04-15T00:41:50;4.10;;;2.37;;
62788;SDS011;66401;42.016;21.454;2023-04-15T00:44:16;3.30;;;2.27;;
62788;SDS011;66401;42.016;21.454;2023-04-15T00:46:42;2.60;;;2.10;;
62788;SDS011;66401;42.016;21.454;2023-04-15T00:49:09;3.67;;;3.00;;
62788;SDS011;66401;42.016;21.454;2023-04-15T00:51:35;4.30;;;2.70;;
62788;SDS011;66401;42.016;21.454;2023-04-15T00:54:04;2.90;;;2.40;;
62788;SDS011;66401;42.016;21.454;2023-04-15T00:56:32;1.87;;;1.73;;
62788;SDS011;66401;42.016;21.454;2023-04-15T00:59:00;4.13;;;2.10;;
62788;SDS011;66401;42.016;21.454;2023-04-15T01:01:26;2.80;;;2.30;;
62788;SDS011;66401;42.016;21.454;2023-04-15T01:03:53;3.17;;;1.80;;
62788;SDS011;66401;42.016;21.454;2023-04-15T01:06:20;2.40;;;2.20;;
62788;SDS011;66401;42.016;21.454;2023-04-15T01:08:46;2.00;;;1.60;;
62788;SDS011;66401;42.016;21.454;2023-04-15T01:11:12;3.80;;;1.83;;
62788;SDS011;66401;42.016;21.454;2023-04-15T01:13:38;4.70;;;1.73;;
62788;SDS011;66401;42.016;21.454;2023-04-15T01:16:04;5.13;;;2.30;;
62788;SDS011;66401;42.016;21.454;2023-04-15T01:18:30;4.30;;;2.47;;
62788;SDS011;66401;42.016;21.454;2023-04-15T01:20:56;5.10;;;2.97;;
62788;SDS011;66401;42.016;21.454;2023-04-15T01:23:22;6.43;;;3.00;;
62788;SDS011;66401;42.016;21.454;2023-04-15T01:25:48;5.13;;;3.10;;
62788;SDS011;66401;42.016;21.454;2023-04-15T01:28:14;6.33;;;3.70;;
62788;SDS011;66401;42.016;21.454;2023-04-15T01:30:40;7.37;;;3.40;;
62788;SDS011;66401;42.016;21.454;2023-04-15T01:33:05;9.23;;;3.93;;
62788;SDS011;66401;42.016;21.454;2023-04-15T01:35:31;5.73;;;3.57;;
62788;SDS011;66401;42.016;21.454;2023-04-15T01:37:59;7.50;;;3.33;;
62788;SDS011;66401;42.016;21.454;2023-04-15T01:40:29;6.80;;;3.37;;
62788;SDS011;66401;42.016;21.454;2023-04-15T01:42:55;7.70;;;3.73;;
62788;SDS011;66401;42.016;21.454;2023-04-15T01:45:20;11.53;;;4.60;;
62788;SDS011;66401;42.016;21.454;2023-04-15T01:47:46;13.43;;;5.20;;
62788;SDS011;66401;42.016;21.454;2023-04-15T01:50:13;9.07;;;3.73;;
62788;SDS011;66401;42.016;21.454;2023-04-15T01:52:39;4.47;;;3.43;;
62788;SDS011;66401;42.016;21.454;2023-04-15T01:55:05;8.70;;;4.03;;
62788;SDS011;66401;42.016;21.454;2023-04-15T01:57:32;11.20;;;3.40;;
62788;SDS011;66401;42.016;21.454;2023-04-15T01:59:57;7.13;;;3.20;;
62788;SDS011;66401;42.016;21.454;2023-04-15T02:02:23;4.90;;;3.07;;
62788;SDS011;66401;42.016;21.454;2023-04-15T02:04:49;8.40;;;2.97;;
62788;SDS011;66401;42.016;21.454;2023-04-15T02:07:15;7.97;;;3.40;;
62788;SDS011;66401;42.016;21.454;2023-04-15T02:09:40;4.90;;;2.97;;
62788;SDS011;66401;42.016;21.454;2023-04-15T02:12:06;9.77;;;3.17;;
62788;SDS011;66401;42.016;21.454;2023-04-15T02:14:32;6.40;;;3.87;;
62788;SDS011;66401;42.016;21.454;2023-04-15T02:16:57;6.57;;;3.90;;
62788;SDS011;66401;42.016;21.454;2023-04-15T02:19:26;6.50;;;4.00;;
62788;SDS011;66401;42.016;21.454;2023-04-15T02:21:51;6.43;;;3.87;;
62788;SDS011;66401;42.016;21.454;2023-04-15T02:24:17;7.73;;;4.13;;
62788;SDS011;66401;42.016;21.454;2023-04-15T02:26:42;4.23;;;3.40;;
62788;SDS011;66401;42.016;21.454;2023-04-15T02:29:08;7.30;;;3.50;;
62788;SDS011;66401;42.016;21.454;2023-04-15T02:31:33;6.83;;;3.83;;
62788;SDS011;66401;42.016;21.454;2023-04-15T02:34:02;4.40;;;3.57;;
62788;SDS011;66401;42.016;21.454;2023-04-15T02:36:28;5.80;;;3.60;;
62788;SDS011;66401;42.016;21.454;2023-04-15T02:38:55;11.13;;;3.53;;
62788;SDS011;66401;42.016;21.454;2023-04-15T02:41:21;4.17;;;3.40;;
62788;SDS011;66401;42.016;21.454;2023-04-15T02:43:51;3.97;;;3.13;;
62788;SDS011;66401;42.016;21.454;2023-04-15T02:46:16;7.20;;;3.50;;
62788;SDS011;66401;42.016;21.454;2023-04-15T02:48:42;4.27;;;3.13;;
62788;SDS011;66401;42.016;21.454;2023-04-15T02:51:11;6.33;;;3.03;;
62788;SDS011;66401;42.016;21.454;2023-04-15T02:53:37;7.43;;;3.20;;
62788;SDS011;66401;42.016;21.454;2023-04-15T02:56:02;5.30;;;3.17;;
62788;SDS011;66401;42.016;21.454;2023-04-15T02:58:28;4.00;;;3.53;;
62788;SDS011;66401;42.016;21.454;2023-04-15T03:00:53;5.77;;;3.30;;
62788;SDS011;66401;42.016;21.454;2023-04-15T03:03:19;6.13;;;3.17;;
62788;SDS011;66401;42.016;21.454;2023-04-15T03:05:44;7.60;;;3.20;;
62788;SDS011;66401;42.016;21.454;2023-04-15T03:08:10;6.33;;;3.37;;
62788;SDS011;66401;42.016;21.454;2023-04-15T03:10:36;4.87;;;2.97;;
62788;SDS011;66401;42.016;21.454;2023-04-15T03:13:01;3.97;;;2.83;;
62788;SDS011;66401;42.016;21.454;2023-04-15T03:15:26;4.20;;;3.37;;
62788;SDS011;66401;42.016;21.454;2023-04-15T03:17:52;6.83;;;3.37;;
62788;SDS011;66401;42.016;21.454;2023-04-15T03:20:18;5.30;;;3.40;;
62788;SDS011;66401;42.016;21.454;2023-04-15T03:22:43;4.57;;;3.00;;
62788;SDS011;66401;42.016;21.454;2023-04-15T03:25:09;5.70;;;3.30;;
62788;SDS011;66401;42.016;21.454;2023-04-15T03:27:34;4.53;;;3.17;;
62788;SDS011;66401;42.016;21.454;2023-04-15T03:30:00;4.70;;;3.20;;
62788;SDS011;66401;42.016;21.454;2023-04-15T03:32:25;5.13;;;3.77;;
62788;SDS011;66401;42.016;21.454;2023-04-15T03:34:51;6.23;;;3.53;;
62788;SDS011;66401;42.016;21.454;2023-04-15T03:37:16;5.93;;;4.20;;
62788;SDS011;66401;42.016;21.454;2023-04-15T03:39:42;5.90;;;4.17;;
62788;SDS011;66401;42.016;21.454;2023-04-15T03:42:07;8.23;;;4.63;;
62788;SDS011;66401;42.016;21.454;2023-04-15T03:44:33;4.30;;;3.60;;
62788;SDS011;66401;42.016;21.454;2023-04-15T03:46:58;7.47;;;3.37;;
62788;SDS011;66401;42.016;21.454;2023-04-15T03:49:24;4.13;;;3.27;;
62788;SDS011;66401;42.016;21.454;2023-04-15T03:51:49;4.90;;;3.70;;
62788;SDS011;66401;42.016;21.454;2023-04-15T03:54:15;4.80;;;3.90;;
62788;SDS011;66401;42.016;21.454;2023-04-15T03:56:40;10.47;;;4.40;;
62788;SDS011;66401;42.016;21.454;2023-04-15T03:59:06;8.03;;;3.93;;
62788;SDS011;66401;42.016;21.454;2023-04-15T04:01:31;4.40;;;3.70;;
62788;SDS011;66401;42.016;21.454;2023-04-15T04:03:57;4.00;;;3.27;;
62788;SDS011;66401;42.016;21.454;2023-04-15T04:06:22;7.33;;;3.83;;
62788;SDS011;66401;42.016;21.454;2023-04-15T04:08:48;6.33;;;3.43;;
62788;SDS011;66401;42.016;21.454;2023-04-15T04:11:13;6.13;;;3.90;;
62788;SDS011;66401;42.016;21.454;2023-04-15T04:13:39;7.27;;;4.17;;
62788;SDS011;66401;42.016;21.454;2023-04-15T04:16:05;10.00;;;4.20;;
62788;SDS011;66401;42.016;21.454;2023-04-15T04:18:31;8.43;;;4.73;;
62788;SDS011;66401;42.016;21.454;2023-04-15T04:20:56;10.47;;;5.17;;
62788;SDS011;66401;42.016;21.454;2023-04-15T04:23:22;16.07;;;7.50;;
62788;SDS011;66401;42.016;21.454;2023-04-15T04:25:48;14.20;;;7.53;;
62788;SDS011;66401;42.016;21.454;2023-04-15T04:28:13;11.53;;;5.97;;
62788;SDS011;66401;42.016;21.454;2023-04-15T04:30:39;6.83;;;4.47;;
62788;SDS011;66401;42.016;21.454;2023-04-15T04:33:05;12.10;;;5.90;;
62788;SDS011;66401;42.016;21.454;2023-04-15T04:35:31;10.17;;;5.07;;
62788;SDS011;66401;42.016;21.454;2023-04-15T04:37:59;8.80;;;5.13;;
62788;SDS011;66401;42.016;21.454;2023-04-15T04:40:24;11.47;;;5.60;;
62788;SDS011;66401;42.016;21.454;2023-04-15T04:42:50;12.67;;;5.33;;
62788;SDS011;66401;42.016;21.454;2023-04-15T04:45:16;6.93;;;3.87;;
62788;SDS011;66401;42.016;21.454;2023-04-15T04:47:41;4.30;;;3.03;;
62788;SDS011;66401;42.016;21.454;2023-04-15T04:50:07;4.60;;;3.53;;
62788;SDS011;66401;42.016;21.454;2023-04-15T04:52:33;5.40;;;4.23;;
62788;SDS011;66401;42.016;21.454;2023-04-15T04:54:58;9.03;;;3.43;;
62788;SDS011;66401;42.016;21.454;2023-04-15T04:57:24;4.57;;;3.00;;
62788;SDS011;66401;42.016;21.454;2023-04-15T04:59:49;7.63;;;3.07;;
62788;SDS011;66401;42.016;21.454;2023-04-15T05:02:15;3.17;;;2.20;;
62788;SDS011;66401;42.016;21.454;2023-04-15T05:04:41;4.17;;;3.00;;
62788;SDS011;66401;42.016;21.454;2023-04-15T05:07:06;10.90;;;5.40;;
62788;SDS011;66401;42.016;21.454;2023-04-15T05:09:32;14.20;;;6.13;;
62788;SDS011;66401;42.016;21.454;2023-04-15T05:12:00;11.77;;;4.60;;
62788;SDS011;66401;42.016;21.454;2023-04-15T05:14:25;6.97;;;3.50;;
62788;SDS011;66401;42.016;21.454;2023-04-15T05:16:51;5.93;;;2.67;;
62788;SDS011;66401;42.016;21.454;2023-04-15T05:19:16;4.17;;;2.37;;
62788;SDS011;66401;42.016;21.454;2023-04-15T05:21:42;5.93;;;2.13;;
62788;SDS011;66401;42.016;21.454;2023-04-15T05:24:07;7.17;;;2.33;;
62788;SDS011;66401;42.016;21.454;2023-04-15T05:26:33;5.23;;;2.60;;
62788;SDS011;66401;42.016;21.454;2023-04-15T05:28:58;5.33;;;2.93;;
62788;SDS011;66401;42.016;21.454;2023-04-15T05:31:24;5.30;;;2.80;;
62788;SDS011;66401;42.016;21.454;2023-04-15T05:33:49;4.50;;;2.37;;
62788;SDS011;66401;42.016;21.454;2023-04-15T05:36:15;5.17;;;2.53;;
62788;SDS011;66401;42.016;21.454;2023-04-15T05:38:41;4.70;;;1.97;;
62788;SDS011;66401;42.016;21.454;2023-04-15T05:41:07;3.60;;;1.90;;
62788;SDS011;66401;42.016;21.454;2023-04-15T05:43:33;2.60;;;2.10;;
62788;SDS011;66401;42.016;21.454;2023-04-15T05:45:58;3.03;;;1.73;;
62788;SDS011;66401;42.016;21.454;2023-04-15T05:48:24;5.57;;;1.90;;
62788;SDS011;66401;42.016;21.454;2023-04-15T05:50:51;4.80;;;2.10;;
62788;SDS011;66401;42.016;21.454;2023-04-15T05:53:16;2.93;;;2.30;;
62788;SDS011;66401;42.016;21.454;2023-04-15T05:55:42;2.97;;;2.30;;
62788;SDS011;66401;42.016;21.454;2023-04-15T05:58:07;5.63;;;2.63;;
62788;SDS011;66401;42.016;21.454;2023-04-15T06:00:33;2.03;;;1.80;;
62788;SDS011;66401;42.016;21.454;2023-04-15T06:02:58;3.30;;;1.93;;
62788;SDS011;66401;42.016;21.454;2023-04-15T06:05:24;2.17;;;1.97;;
62788;SDS011;66401;42.016;21.454;2023-04-15T06:07:50;2.40;;;1.80;;
62788;SDS011;66401;42.016;21.454;2023-04-15T06:10:16;5.60;;;2.20;;
62788;SDS011;66401;42.016;21.454;2023-04-15T06:12:41;2.20;;;2.00;;
62788;SDS011;66401;42.016;21.454;2023-04-15T06:15:07;3.40;;;2.13;;
62788;SDS011;66401;42.016;21.454;2023-04-15T06:17:34;3.67;;;2.10;;
62788;SDS011;66401;42.016;21.454;2023-04-15T06:20:00;8.97;;;3.40;;
62788;SDS011;66401;42.016;21.454;2023-04-15T06:22:26;9.27;;;3.27;;
62788;SDS011;66401;42.016;21.454;2023-04-15T06:24:51;5.70;;;2.70;;
62788;SDS011;66401;42.016;21.454;2023-04-15T06:27:17;3.30;;;2.37;;
62788;SDS011;66401;42.016;21.454;2023-04-15T06:29:43;4.33;;;2.70;;
62788;SDS011;66401;42.016;21.454;2023-04-15T06:32:09;5.90;;;3.03;;
62788;SDS011;66401;42.016;21.454;2023-04-15T06:34:35;4.07;;;3.23;;
62788;SDS011;66401;42.016;21.454;2023-04-15T06:37:00;3.43;;;2.87;;
62788;SDS011;66401;42.016;21.454;2023-04-15T06:39:26;4.33;;;2.60;;
62788;SDS011;66401;42.016;21.454;2023-04-15T06:41:51;7.20;;;3.13;;
62788;SDS011;66401;42.016;21.454;2023-04-15T06:44:17;3.77;;;2.20;;
62788;SDS011;66401;42.016;21.454;2023-04-15T06:46:43;3.63;;;2.10;;
62788;SDS011;66401;42.016;21.454;2023-04-15T06:49:09;4.27;;;2.50;;
62788;SDS011;66401;42.016;21.454;2023-04-15T06:51:35;4.57;;;2.07;;
62788;SDS011;66401;42.016;21.454;2023-04-15T06:54:01;6.63;;;2.37;;
62788;SDS011;66401;42.016;21.454;2023-04-15T06:56:29;9.47;;;2.67;;
62788;SDS011;66401;42.016;21.454;2023-04-15T06:58:55;5.37;;;2.10;;
62788;SDS011;66401;42.016;21.454;2023-04-15T07:01:21;8.77;;;3.20;;
62788;SDS011;66401;42.016;21.454;2023-04-15T07:03:47;4.67;;;2.30;;
62788;SDS011;66401;42.016;21.454;2023-04-15T07:06:12;5.40;;;2.07;;
62788;SDS011;66401;42.016;21.454;2023-04-15T07:08:38;2.70;;;2.47;;
62788;SDS011;66401;42.016;21.454;2023-04-15T07:11:03;7.13;;;2.60;;
62788;SDS011;66401;42.016;21.454;2023-04-15T07:13:30;2.67;;;2.07;;
62788;SDS011;66401;42.016;21.454;2023-04-15T07:15:56;4.97;;;2.43;;
62788;SDS011;66401;42.016;21.454;2023-04-15T07:18:22;3.87;;;2.00;;
62788;SDS011;66401;42.016;21.454;2023-04-15T07:20:47;5.13;;;2.23;;
62788;SDS011;66401;42.016;21.454;2023-04-15T07:23:13;3.57;;;2.40;;
62788;SDS011;66401;42.016;21.454;2023-04-15T07:25:38;5.23;;;2.40;;
62788;SDS011;66401;42.016;21.454;2023-04-15T07:28:04;4.97;;;2.50;;
62788;SDS011;66401;42.016;21.454;2023-04-15T07:30:30;5.50;;;2.60;;
62788;SDS011;66401;42.016;21.454;2023-04-15T07:32:57;6.27;;;3.07;;
62788;SDS011;66401;42.016;21.454;2023-04-15T07:35:22;3.57;;;2.13;;
62788;SDS011;66401;42.016;21.454;2023-04-15T07:37:49;5.10;;;2.70;;
62788;SDS011;66401;42.016;21.454;2023-04-15T07:40:16;3.13;;;2.20;;
62788;SDS011;66401;42.016;21.454;2023-04-15T07:42:42;2.73;;;2.33;;
62788;SDS011;66401;42.016;21.454;2023-04-15T07:45:08;4.13;;;2.50;;
62788;SDS011;66401;42.016;21.454;2023-04-15T07:47:34;4.83;;;2.43;;
62788;SDS011;66401;42.016;21.454;2023-04-15T07:50:00;5.53;;;2.60;;
62788;SDS011;66401;42.016;21.454;2023-04-15T07:52:26;8.50;;;4.00;;
62788;SDS011;66401;42.016;21.454;2023-04-15T07:54:52;4.10;;;2.80;;
62788;SDS011;66401;42.016;21.454;2023-04-15T07:57:18;2.37;;;2.03;;
62788;SDS011;66401;42.016;21.454;2023-04-15T07:59:43;2.23;;;1.67;;
62788;SDS011;66401;42.016;21.454;2023-04-15T08:02:10;3.97;;;1.80;;
62788;SDS011;66401;42.016;21.454;2023-04-15T08:04:35;3.17;;;1.77;;
62788;SDS011;66401;42.016;21.454;2023-04-15T08:07:01;4.57;;;1.97;;
62788;SDS011;66401;42.016;21.454;2023-04-15T08:09:28;5.97;;;3.10;;
62788;SDS011;66401;42.016;21.454;2023-04-15T08:11:53;13.70;;;4.40;;
62788;SDS011;66401;42.016;21.454;2023-04-15T08:14:20;6.33;;;2.60;;
62788;SDS011;66401;42.016;21.454;2023-04-15T08:16:46;4.60;;;1.57;;
62788;SDS011;66401;42.016;21.454;2023-04-15T08:19:11;8.07;;;3.93;;
62788;SDS011;66401;42.016;21.454;2023-04-15T08:21:37;11.47;;;4.03;;
62788;SDS011;66401;42.016;21.454;2023-04-15T08:24:02;6.83;;;3.80;;
62788;SDS011;66401;42.016;21.454;2023-04-15T08:26:28;13.87;;;4.03;;
62788;SDS011;66401;42.016;21.454;2023-04-15T08:28:53;7.47;;;3.50;;
62788;SDS011;66401;42.016;21.454;2023-04-15T08:31:19;3.37;;;1.50;;
62788;SDS011;66401;42.016;21.454;2023-04-15T08:33:44;1.60;;;1.50;;
62788;SDS011;66401;42.016;21.454;2023-04-15T08:36:10;2.73;;;1.63;;
62788;SDS011;66401;42.016;21.454;2023-04-15T08:38:37;3.27;;;2.30;;
62788;SDS011;66401;42.016;21.454;2023-04-15T08:41:06;2.67;;;2.10;;
62788;SDS011;66401;42.016;21.454;2023-04-15T08:43:38;5.13;;;3.10;;
62788;SDS011;66401;42.016;21.454;2023-04-15T08:46:11;3.27;;;2.30;;
62788;SDS011;66401;42.016;21.454;2023-04-15T08:48:37;5.67;;;2.50;;
62788;SDS011;66401;42.016;21.454;2023-04-15T08:51:03;8.73;;;3.40;;
62788;SDS011;66401;42.016;21.454;2023-04-15T08:53:29;8.43;;;3.20;;
62788;SDS011;66401;42.016;21.454;2023-04-15T08:55:55;2.90;;;1.60;;
62788;SDS011;66401;42.016;21.454;2023-04-15T08:58:22;3.97;;;1.83;;
62788;SDS011;66401;42.016;21.454;2023-04-15T09:00:49;3.70;;;1.70;;
62788;SDS011;66401;42.016;21.454;2023-04-15T09:03:14;2.97;;;1.80;;
62788;SDS011;66401;42.016;21.454;2023-04-15T09:05:41;6.23;;;2.30;;
62788;SDS011;66401;42.016;21.454;2023-04-15T09:08:07;2.13;;;1.63;;
62788;SDS011;66401;42.016;21.454;2023-04-15T09:10:33;4.43;;;2.00;;
62788;SDS011;66401;42.016;21.454;2023-04-15T09:12:59;3.10;;;1.90;;
62788;SDS011;66401;42.016;21.454;2023-04-15T09:15:26;3.87;;;1.73;;
62788;SDS011;66401;42.016;21.454;2023-04-15T09:17:53;2.67;;;1.90;;
62788;SDS011;66401;42.016;21.454;2023-04-15T09:20:19;2.17;;;2.07;;
62788;SDS011;66401;42.016;21.454;2023-04-15T09:22:46;3.30;;;2.67;;
62788;SDS011;66401;42.016;21.454;2023-04-15T09:30:13;5.07;;;2.40;;
62788;SDS011;66401;42.016;21.454;2023-04-15T09:35:19;3.47;;;2.20;;
62788;SDS011;66401;42.016;21.454;2023-04-15T09:37:46;4.10;;;1.83;;
62788;SDS011;66401;42.016;21.454;2023-04-15T09:40:12;2.43;;;1.87;;
62788;SDS011;66401;42.016;21.454;2023-04-15T09:42:53;3.13;;;1.63;;
62788;SDS011;66401;42.016;21.454;2023-04-15T09:45:20;2.40;;;1.70;;
62788;SDS011;66401;42.016;21.454;2023-04-15T09:47:46;1.60;;;1.20;;
62788;SDS011;66401;42.016;21.454;2023-04-15T09:50:12;2.27;;;1.90;;
62788;SDS011;66401;42.016;21.454;2023-04-15T09:52:42;2.80;;;1.37;;
62788;SDS011;66401;42.016;21.454;2023-04-15T09:55:08;6.30;;;2.53;;
62788;SDS011;66401;42.016;21.454;2023-04-15T09:57:35;6.83;;;3.27;;
62788;SDS011;66401;42.016;21.454;2023-04-15T10:00:04;2.00;;;1.63;;
62788;SDS011;66401;42.016;21.454;2023-04-15T10:02:33;4.53;;;1.90;;
62788;SDS011;66401;42.016;21.454;2023-04-15T10:05:00;1.13;;;1.00;;
62788;SDS011;66401;42.016;21.454;2023-04-15T10:07:26;2.30;;;1.70;;
62788;SDS011;66401;42.016;21.454;2023-04-15T10:09:52;2.97;;;1.20;;
62788;SDS011;66401;42.016;21.454;2023-04-15T10:12:18;5.27;;;1.70;;
62788;SDS011;66401;42.016;21.454;2023-04-15T10:14:47;4.03;;;1.70;;
62788;SDS011;66401;42.016;21.454;2023-04-15T10:17:21;1.90;;;1.47;;
62788;SDS011;66401;42.016;21.454;2023-04-15T10:19:47;3.43;;;1.80;;
62788;SDS011;66401;42.016;21.454;2023-04-15T10:22:13;3.87;;;2.67;;
62788;SDS011;66401;42.016;21.454;2023-04-15T10:24:39;5.67;;;3.10;;
62788;SDS011;66401;42.016;21.454;2023-04-15T10:27:05;3.97;;;2.00;;
62788;SDS011;66401;42.016;21.454;2023-04-15T10:29:32;7.43;;;2.53;;
62788;SDS011;66401;42.016;21.454;2023-04-15T10:31:58;6.13;;;2.60;;
62788;SDS011;66401;42.016;21.454;2023-04-15T10:34:25;2.93;;;1.80;;
62788;SDS011;66401;42.016;21.454;2023-04-15T10:36:55;2.70;;;2.07;;
62788;SDS011;66401;42.016;21.454;2023-04-15T10:39:38;3.13;;;1.67;;
62788;SDS011;66401;42.016;21.454;2023-04-15T10:44:32;2.53;;;1.33;;
62788;SDS011;66401;42.016;21.454;2023-04-15T10:46:57;1.83;;;1.20;;
62788;SDS011;66401;42.016;21.454;2023-04-15T10:49:24;5.80;;;1.77;;
62788;SDS011;66401;42.016;21.454;2023-04-15T10:51:56;5.50;;;1.50;;
62788;SDS011;66401;42.016;21.454;2023-04-15T10:56:50;2.90;;;2.13;;
62788;SDS011;66401;42.016;21.454;2023-04-15T10:59:16;2.33;;;1.00;;
62788;SDS011;66401;42.016;21.454;2023-04-15T11:01:55;2.60;;;1.03;;
62788;SDS011;66401;42.016;21.454;2023-04-15T11:07:15;1.80;;;0.73;;
62788;SDS011;66401;42.016;21.454;2023-04-15T11:09:56;1.47;;;0.80;;
62788;SDS011;66401;42.016;21.454;2023-04-15T11:12:22;0.73;;;0.57;;
62788;SDS011;66401;42.016;21.454;2023-04-15T11:14:59;1.20;;;0.50;;
62788;SDS011;66401;42.016;21.454;2023-04-15T11:20:39;0.70;;;0.70;;
62788;SDS011;66401;42.016;21.454;2023-04-15T11:23:07;1.77;;;0.50;;
62788;SDS011;66401;42.016;21.454;2023-04-15T11:25:33;0.87;;;0.47;;
62788;SDS011;66401;42.016;21.454;2023-04-15T11:28:01;2.47;;;0.67;;
62788;SDS011;66401;42.016;21.454;2023-04-15T11:30:28;1.07;;;0.60;;
62788;SDS011;66401;42.016;21.454;2023-04-15T11:33:14;2.10;;;0.67;;
62788;SDS011;66401;42.016;21.454;2023-04-15T11:35:40;0.50;;;0.40;;
62788;SDS011;66401;42.016;21.454;2023-04-15T11:38:10;1.83;;;0.50;;
62788;SDS011;66401;42.016;21.454;2023-04-15T11:40:37;1.03;;;0.67;;
62788;SDS011;66401;42.016;21.454;2023-04-15T11:45:29;2.63;;;1.03;;
62788;SDS011;66401;42.016;21.454;2023-04-15T11:48:03;4.23;;;1.70;;
62788;SDS011;66401;42.016;21.454;2023-04-15T11:50:38;1.40;;;0.87;;
62788;SDS011;66401;42.016;21.454;2023-04-15T11:53:05;1.77;;;0.90;;
62788;SDS011;66401;42.016;21.454;2023-04-15T11:55:42;2.43;;;0.90;;
62788;SDS011;66401;42.016;21.454;2023-04-15T11:58:18;3.60;;;0.60;;
62788;SDS011;66401;42.016;21.454;2023-04-15T12:00:57;1.00;;;0.37;;
62788;SDS011;66401;42.016;21.454;2023-04-15T12:03:27;2.13;;;0.60;;
62788;SDS011;66401;42.016;21.454;2023-04-15T12:11:17;3.73;;;0.70;;
62788;SDS011;66401;42.016;21.454;2023-04-15T12:13:56;1.23;;;0.73;;
62788;SDS011;66401;42.016;21.454;2023-04-15T12:16:23;0.90;;;0.60;;
62788;SDS011;66401;42.016;21.454;2023-04-15T12:18:53;0.50;;;0.50;;
62788;SDS011;66401;42.016;21.454;2023-04-15T12:21:24;1.83;;;0.77;;
62788;SDS011;66401;42.016;21.454;2023-04-15T12:23:52;1.30;;;0.77;;
62788;SDS011;66401;42.016;21.454;2023-04-15T12:26:29;2.30;;;0.47;;
62788;SDS011;66401;42.016;21.454;2023-04-15T12:29:02;1.50;;;0.57;;
62788;SDS011;66401;42.016;21.454;2023-04-15T12:31:29;0.77;;;0.67;;
62788;SDS011;66401;42.016;21.454;2023-04-15T12:33:55;1.07;;;0.70;;
62788;SDS011;66401;42.016;21.454;2023-04-15T12:36:22;3.20;;;1.30;;
62788;SDS011;66401;42.016;21.454;2023-04-15T12:38:48;3.53;;;1.50;;
62788;SDS011;66401;42.016;21.454;2023-04-15T12:41:14;1.30;;;0.77;;
62788;SDS011;66401;42.016;21.454;2023-04-15T12:43:39;0.63;;;0.60;;
62788;SDS011;66401;42.016;21.454;2023-04-15T12:46:06;1.27;;;0.70;;
62788;SDS011;66401;42.016;21.454;2023-04-15T12:48:32;2.20;;;0.70;;
62788;SDS011;66401;42.016;21.454;2023-04-15T12:50:58;0.97;;;0.73;;
62788;SDS011;66401;42.016;21.454;2023-04-15T12:53:24;1.90;;;0.57;;
62788;SDS011;66401;42.016;21.454;2023-04-15T12:55:50;1.60;;;0.33;;
62788;SDS011;66401;42.016;21.454;2023-04-15T12:58:16;2.30;;;0.60;;
62788;SDS011;66401;42.016;21.454;2023-04-15T13:00:41;1.67;;;0.80;;
62788;SDS011;66401;42.016;21.454;2023-04-15T13:03:07;2.10;;;0.80;;
62788;SDS011;66401;42.016;21.454;2023-04-15T13:05:32;1.50;;;0.73;;
62788;SDS011;66401;42.016;21.454;2023-04-15T13:07:58;3.77;;;0.70;;
62788;SDS011;66401;42.016;21.454;2023-04-15T13:10:24;1.10;;;0.50;;
62788;SDS011;66401;42.016;21.454;2023-04-15T13:12:50;0.70;;;0.47;;
62788;SDS011;66401;42.016;21.454;2023-04-15T13:15:17;0.93;;;0.60;;
62788;SDS011;66401;42.016;21.454;2023-04-15T13:17:45;0.87;;;0.73;;
62788;SDS011;66401;42.016;21.454;2023-04-15T13:20:11;1.03;;;0.80;;
62788;SDS011;66401;42.016;21.454;2023-04-15T13:22:36;0.57;;;0.50;;
62788;SDS011;66401;42.016;21.454;2023-04-15T13:25:03;0.67;;;0.60;;
62788;SDS011;66401;42.016;21.454;2023-04-15T13:27:29;0.97;;;0.50;;
62788;SDS011;66401;42.016;21.454;2023-04-15T13:29:55;1.10;;;0.40;;
62788;SDS011;66401;42.016;21.454;2023-04-15T13:32:21;2.60;;;0.60;;
62788;SDS011;66401;42.016;21.454;2023-04-15T13:34:47;1.63;;;0.57;;
62788;SDS011;66401;42.016;21.454;2023-04-15T13:37:12;2.33;;;0.67;;
62788;SDS011;66401;42.016;21.454;2023-04-15T13:39:38;1.23;;;0.60;;
62788;SDS011;66401;42.016;21.454;2023-04-15T13:42:03;1.07;;;0.60;;
62788;SDS011;66401;42.016;21.454;2023-04-15T13:44:29;1.93;;;0.63;;
62788;SDS011;66401;42.016;21.454;2023-04-15T13:46:54;1.93;;;0.57;;
62788;SDS011;66401;42.016;21.454;2023-04-15T13:49:20;1.90;;;0.63;;
62788;SDS011;66401;42.016;21.454;2023-04-15T13:51:46;1.17;;;0.60;;
62788;SDS011;66401;42.016;21.454;2023-04-15T13:54:11;1.40;;;0.73;;
62788;SDS011;66401;42.016;21.454;2023-04-15T13:56:37;2.23;;;0.60;;
62788;SDS011;66401;42.016;21.454;2023-04-15T13:59:02;0.33;;;0.33;;
62788;SDS011;66401;42.016;21.454;2023-04-15T14:01:28;2.07;;;0.57;;
62788;SDS011;66401;42.016;21.454;2023-04-15T14:03:53;0.47;;;0.47;;
62788;SDS011;66401;42.016;21.454;2023-04-15T14:06:19;2.37;;;0.70;;
62788;SDS011;66401;42.016;21.454;2023-04-15T14:08:45;0.73;;;0.57;;
62788;SDS011;66401;42.016;21.454;2023-04-15T14:11:10;0.57;;;0.50;;
62788;SDS011;66401;42.016;21.454;2023-04-15T14:13:36;0.60;;;0.47;;
62788;SDS011;66401;42.016;21.454;2023-04-15T14:16:02;2.90;;;0.90;;
62788;SDS011;66401;42.016;21.454;2023-04-15T14:18:27;1.80;;;0.70;;
62788;SDS011;66401;42.016;21.454;2023-04-15T14:20:54;2.50;;;0.87;;
62788;SDS011;66401;42.016;21.454;2023-04-15T14:23:20;0.70;;;0.70;;
62788;SDS011;66401;42.016;21.454;2023-04-15T14:25:45;1.37;;;0.70;;
62788;SDS011;66401;42.016;21.454;2023-04-15T14:28:11;1.73;;;0.60;;
62788;SDS011;66401;42.016;21.454;2023-04-15T14:30:36;1.03;;;0.70;;
62788;SDS011;66401;42.016;21.454;2023-04-15T14:33:02;0.60;;;0.60;;
62788;SDS011;66401;42.016;21.454;2023-04-15T14:35:27;1.03;;;0.70;;
62788;SDS011;66401;42.016;21.454;2023-04-15T14:37:53;0.97;;;0.60;;
62788;SDS011;66401;42.016;21.454;2023-04-15T14:40:19;1.33;;;0.90;;
62788;SDS011;66401;42.016;21.454;2023-04-15T14:42:45;1.67;;;1.27;;
62788;SDS011;66401;42.016;21.454;2023-04-15T14:45:11;1.60;;;0.70;;
62788;SDS011;66401;42.016;21.454;2023-04-15T14:47:36;1.30;;;0.60;;
62788;SDS011;66401;42.016;21.454;2023-04-15T14:50:02;1.33;;;0.87;;
62788;SDS011;66401;42.016;21.454;2023-04-15T14:52:29;3.10;;;0.70;;
62788;SDS011;66401;42.016;21.454;2023-04-15T14:54:57;2.07;;;1.00;;